.
WxDataArchive / Data Records for 2009-03-24
2009-03-23 March 2009 2009-03-25

Data Records for Tuesday, 24 March 2009

Time	Temp	Chill	HIndex	Humid	Dewpt	 Wind 	HiWind	WindDir	Rain 	Barom 
-----	----	-----	------	-----	-----	------	------	-------	-----	----- 
00:00	34.1	30.5	34.1	52	18.3	4	10	112	0.00	30.298 
00:05	34.1	30.5	34.1	52	18.3	4	11	112	0.00	30.296 
00:10	34.3	29.8	34.3	51	18.1	5	12	90	0.00	30.299 
00:15	34.4	30.8	34.4	52	18.6	4	10	90	0.00	30.298 
00:20	34.4	29.9	34.4	51	18.2	5	10	112	0.00	30.294 
00:25	34.6	31.1	34.6	52	18.8	4	10	112	0.00	30.299 
00:30	34.7	31.2	34.7	51	18.4	4	9	112	0.00	30.296 
00:35	34.9	30.5	34.9	50	18.2	5	13	112	0.00	30.291 
00:40	35.0	31.5	35.0	50	18.3	4	10	112	0.00	30.296 
00:45	35.2	31.8	35.2	50	18.4	4	8	90	0.00	30.300 
00:50	35.2	30.8	35.2	50	18.4	5	10	90	0.00	30.294 
00:55	35.2	30.8	35.2	51	18.9	5	11	90	0.00	30.289 
01:00	35.2	30.0	35.2	51	18.9	6	13	112	0.00	30.282 
01:05	35.3	30.2	35.3	50	18.5	6	12	90	0.00	30.281 
01:10	35.3	31.0	35.3	50	18.5	5	12	112	0.00	30.283 
01:15	35.5	30.4	35.5	50	18.7	6	12	112	0.00	30.283 
01:20	35.6	31.3	35.6	50	18.8	5	13	90	0.00	30.280 
01:25	35.6	31.3	35.6	50	18.8	5	11	90	0.00	30.280 
01:30	35.8	32.5	35.8	51	19.5	4	7	112	0.00	30.284 
01:35	35.9	32.6	35.9	51	19.6	4	7	90	0.00	30.282 
01:40	35.9	31.7	35.9	51	19.6	5	13	90	0.00	30.277 
01:45	35.9	30.9	35.9	51	19.6	6	12	112	0.00	30.275 
01:50	35.9	31.7	35.9	51	19.6	5	11	112	0.00	30.274 
01:55	35.9	31.7	35.9	51	19.6	5	12	112	0.00	30.275 
02:00	36.0	31.8	36.0	51	19.6	5	10	112	0.00	30.275 
02:05	36.0	31.8	36.0	50	19.2	5	10	112	0.00	30.276 
02:10	36.2	32.0	36.2	50	19.4	5	11	90	0.00	30.277 
02:15	36.3	32.1	36.3	50	19.5	5	9	112	0.00	30.274 
02:20	36.5	32.4	36.5	50	19.6	5	10	112	0.00	30.274 
02:25	36.5	31.6	36.5	49	19.2	6	12	112	0.00	30.273 
02:30	36.5	31.6	36.5	49	19.2	6	12	90	0.00	30.270 
02:35	36.5	30.9	36.5	49	19.2	7	16	112	0.00	30.269 
02:40	36.5	31.6	36.5	49	19.2	6	12	112	0.00	30.263 
02:45	36.6	31.0	36.6	48	18.8	7	13	112	0.00	30.262 
02:50	36.6	31.0	36.6	47	18.3	7	13	112	0.00	30.262 
02:55	36.6	31.7	36.6	48	18.8	6	10	112	0.00	30.261 
03:00	36.6	31.7	36.6	48	18.8	6	15	90	0.00	30.261 
03:05	36.6	31.7	36.6	47	18.3	6	11	90	0.00	30.257 
03:10	36.6	31.7	36.6	48	18.8	6	12	112	0.00	30.255 
03:15	36.6	31.7	36.6	48	18.8	6	15	112	0.00	30.252 
03:20	36.6	32.5	36.6	48	18.8	5	11	90	0.00	30.247 
03:25	36.5	31.6	36.5	48	18.7	6	14	112	0.00	30.246 
03:30	36.5	31.6	36.5	48	18.7	6	11	112	0.00	30.244 
03:35	36.5	31.6	36.5	48	18.7	6	13	112	0.00	30.242 
03:40	36.5	32.4	36.5	49	19.2	5	13	90	0.00	30.243 
03:45	36.5	31.6	36.5	49	19.2	6	11	112	0.00	30.239 
03:50	36.5	32.4	36.5	49	19.2	5	10	112	0.00	30.240 
03:55	36.5	32.4	36.5	49	19.2	5	13	112	0.00	30.240 
04:00	36.6	33.4	36.6	49	19.3	4	7	112	0.00	30.240 
04:05	36.6	33.4	36.6	49	19.3	4	9	112	0.00	30.240 
04:10	36.6	33.4	36.6	49	19.3	4	9	112	0.00	30.239 
04:15	36.8	32.7	36.8	49	19.5	5	10	112	0.00	30.236 
04:20	36.8	32.7	36.8	49	19.5	5	10	112	0.00	30.238 
04:25	36.8	32.7	36.8	49	19.5	5	10	112	0.00	30.238 
04:30	36.9	32.8	36.9	49	19.5	5	11	90	0.00	30.236 
04:35	36.9	32.8	36.9	49	19.5	5	11	90	0.00	30.235 
04:40	36.9	32.1	36.9	49	19.5	6	11	112	0.00	30.235 
04:45	36.9	33.7	36.9	49	19.5	4	10	90	0.00	30.239 
04:50	37.0	33.9	37.0	49	19.6	4	10	90	0.00	30.240 
04:55	37.0	32.9	37.0	49	19.6	5	9	90	0.00	30.242 
05:00	37.2	37.2	37.2	49	19.8	3	8	90	0.00	30.244 
05:05	37.2	34.1	37.2	48	19.3	4	7	112	0.00	30.244 
05:10	37.3	33.3	37.3	48	19.4	5	10	112	0.00	30.242 
05:15	37.5	33.5	37.5	48	19.6	5	8	90	0.00	30.241 
05:20	37.5	33.5	37.5	47	19.1	5	10	90	0.00	30.241 
05:25	37.6	33.7	37.6	48	19.7	5	9	112	0.00	30.242 
05:30	37.6	34.5	37.6	47	19.2	4	10	90	0.00	30.241 
05:35	37.8	33.9	37.8	47	19.4	5	10	112	0.00	30.240 
05:40	37.8	34.8	37.8	47	19.4	4	7	90	0.00	30.238 
05:45	37.8	33.9	37.8	48	19.9	5	11	90	0.00	30.235 
05:50	37.6	34.5	37.6	49	20.2	4	9	90	0.00	30.238 
05:55	37.6	34.5	37.6	48	19.7	4	9	90	0.00	30.236 
06:00	37.6	34.5	37.6	49	20.2	4	7	90	0.00	30.234 
06:05	37.6	33.7	37.6	48	19.7	5	12	112	0.00	30.233 
06:10	37.6	34.5	37.6	49	20.2	4	12	90	0.00	30.234 
06:15	37.5	33.5	37.5	49	20.1	5	11	90	0.00	30.233 
06:20	37.3	34.2	37.3	49	19.9	4	11	90	0.00	30.232 
06:25	37.3	33.3	37.3	49	19.9	5	10	112	0.00	30.239 
06:30	37.2	34.1	37.2	50	20.3	4	7	112	0.00	30.237 
06:35	37.2	34.1	37.2	50	20.3	4	8	90	0.00	30.238 
06:40	37.0	33.9	37.0	51	20.6	4	10	90	0.00	30.237 
06:45	36.9	32.8	36.9	51	20.5	5	9	112	0.00	30.239 
06:50	36.9	33.7	36.9	52	20.9	4	8	90	0.00	30.241 
06:55	36.8	33.6	36.8	52	20.8	4	9	90	0.00	30.243 
07:00	36.8	32.7	36.8	52	20.8	5	10	90	0.00	30.239 
07:05	36.8	33.6	36.8	52	20.8	4	7	112	0.00	30.242 
07:10	36.8	33.6	36.8	52	20.8	4	7	112	0.00	30.239 
07:15	36.6	32.5	36.6	53	21.1	5	10	112	0.00	30.237 
07:20	36.8	33.6	36.8	53	21.3	4	8	112	0.00	30.235 
07:25	36.8	33.6	36.8	53	21.3	4	10	90	0.00	30.234 
07:30	36.9	33.7	36.9	53	21.4	4	9	90	0.00	30.233 
07:35	37.0	33.9	37.0	53	21.5	4	9	90	0.00	30.232 
07:40	37.3	33.3	37.3	51	20.9	5	10	90	0.00	30.229 
07:45	37.6	33.7	37.6	50	20.7	5	12	112	0.00	30.226 
07:50	37.9	34.0	37.9	49	20.5	5	13	112	0.00	30.228 
07:55	38.3	34.5	38.3	48	20.4	5	10	112	0.00	30.225 
08:00	38.8	34.3	38.8	46	19.8	6	11	112	0.00	30.222 
08:05	39.2	34.2	39.2	46	20.2	7	12	112	0.00	30.223 
08:10	39.5	35.9	39.5	45	19.9	5	11	90	0.00	30.222 
08:15	39.9	35.0	39.9	45	20.3	7	13	112	0.00	30.220 
08:20	40.2	35.4	40.2	44	20.0	7	12	112	0.00	30.218 
08:25	40.5	35.7	40.5	42	19.2	7	14	90	0.00	30.218 
08:30	40.9	36.8	40.9	41	19.0	6	11	112	0.00	30.218 
08:35	41.2	37.2	41.2	39	18.1	6	14	112	0.00	30.218 
08:40	41.6	37.7	41.6	39	18.5	6	12	90	0.00	30.217 
08:45	42.1	38.3	42.1	38	18.3	6	12	112	0.00	30.215 
08:50	42.3	38.5	42.3	38	18.5	6	14	112	0.00	30.216 
08:55	42.9	39.9	42.9	37	18.4	5	12	112	0.00	30.214 
09:00	43.3	39.7	43.3	36	18.2	6	12	112	0.00	30.213 
09:05	43.6	40.0	43.6	35	17.8	6	10	90	0.00	30.213 
09:10	43.9	41.8	43.9	35	18.0	4	9	112	0.00	30.212 
09:15	44.3	41.5	44.3	35	18.4	5	9	112	0.00	30.211 
09:20	44.5	41.8	44.5	32	16.5	5	14	112	0.00	30.210 
09:25	44.6	41.2	44.6	32	16.6	6	12	90	0.00	30.211 
09:30	44.6	42.6	44.6	32	16.6	4	11	112	0.00	30.209 
09:35	45.1	45.1	45.1	31	16.3	3	11	112	0.00	30.207 
09:40	45.4	43.6	45.4	32	17.3	4	10	112	0.00	30.206 
09:45	45.7	43.9	45.7	32	17.6	4	12	112	0.00	30.206 
09:50	46.0	44.2	46.0	31	17.1	4	11	90	0.00	30.203 
09:55	46.4	44.0	46.4	30	16.7	5	11	112	0.00	30.199 
10:00	46.7	44.3	46.7	30	16.9	5	11	112	0.00	30.195 
10:05	47.1	44.2	47.1	30	17.3	6	12	90	0.00	30.197 
10:10	47.6	46.1	47.6	30	17.7	4	10	112	0.00	30.198 
10:15	47.9	45.8	47.9	28	16.4	5	12	112	0.00	30.196 
10:20	48.2	46.8	48.2	29	17.5	4	7	90	0.00	30.196 
10:25	48.6	46.0	48.6	28	17.0	6	12	112	0.00	30.196 
10:30	49.1	47.2	49.1	27	16.6	5	10	112	0.00	30.195 
10:35	49.4	47.5	49.4	28	17.7	5	11	112	0.00	30.195 
10:40	49.8	48.6	49.8	28	18.0	4	9	112	0.00	30.192 
10:45	49.9	47.5	49.9	28	18.1	6	11	112	0.00	30.191 
10:50	50.1	50.1	50.1	27	17.4	5	10	112	0.00	30.189 
10:55	50.4	50.4	50.4	27	17.7	4	9	112	0.00	30.186 
11:00	50.7	50.7	50.7	27	18.0	4	8	112	0.00	30.182 
11:05	50.8	50.8	50.8	25	16.3	6	12	112	0.00	30.180 
11:10	51.1	51.1	51.1	27	18.3	6	11	112	0.00	30.181 
11:15	51.4	51.4	51.4	25	16.8	4	9	112	0.00	30.180 
11:20	51.9	51.9	51.9	26	18.1	4	10	112	0.00	30.178 
11:25	52.5	52.5	52.5	27	19.5	5	10	112	0.00	30.177 
11:30	53.2	53.2	53.2	26	19.2	4	9	112	0.00	30.175 
11:35	53.5	53.5	53.5	25	18.6	5	10	90	0.00	30.174 
11:40	53.8	53.8	53.8	25	18.8	5	11	90	0.00	30.173 
11:45	54.1	54.1	54.1	24	18.1	6	13	112	0.00	30.171 
11:50	54.2	54.2	54.2	25	19.2	5	11	112	0.00	30.169 
11:55	54.4	54.4	54.4	25	19.3	4	11	112	0.00	30.165 
12:00	54.5	54.5	54.5	25	19.4	4	9	90	0.00	30.162 
12:05	54.8	54.8	54.8	25	19.7	3	7	112	0.00	30.156 
12:10	55.1	55.1	55.1	25	19.9	3	11	112	0.00	30.156 
12:15	55.3	55.3	55.3	24	19.1	6	12	112	0.00	30.148 
12:20	55.6	55.6	55.6	25	20.3	5	12	112	0.00	30.146 
12:25	55.7	55.7	55.7	25	20.4	5	12	112	0.00	30.143 
12:30	55.7	55.7	55.7	26	21.4	6	11	112	0.00	30.141 
12:35	55.9	55.9	55.9	26	21.5	5	10	112	0.00	30.137 
12:40	55.7	55.7	55.7	26	21.4	4	9	112	0.00	30.135 
12:45	55.9	55.9	55.9	26	21.5	5	11	112	0.00	30.130 
12:50	56.0	56.0	56.0	26	21.6	5	11	112	0.00	30.127 
12:55	56.3	56.3	56.3	26	21.9	4	11	112	0.00	30.125 
13:00	57.0	57.0	57.0	27	23.4	6	11	112	0.00	30.113 
13:05	58.0	58.0	58.0	27	24.2	6	10	112	0.00	30.108 
13:10	58.6	58.6	58.6	25	22.9	6	15	112	0.00	30.097 
13:15	58.6	58.6	58.6	25	22.9	8	15	112	0.00	30.091 
13:20	58.6	58.6	58.6	26	23.8	8	13	112	0.00	30.087 
13:25	58.6	58.6	58.6	26	23.8	8	14	112	0.00	30.079 
13:30	58.7	58.7	58.7	26	23.9	7	15	90	0.00	30.076 
13:35	59.2	59.2	59.2	27	25.2	5	10	112	0.00	30.080 
13:40	59.8	59.8	59.8	26	24.9	6	12	112	0.00	30.089 
13:45	60.4	60.4	60.4	25	24.4	5	12	112	0.00	30.091 
13:50	60.5	60.5	60.5	25	24.5	5	10	112	0.00	30.089 
13:55	60.7	60.7	60.7	25	24.7	4	9	112	0.00	30.087 
14:00	61.2	61.2	61.2	27	27.0	4	9	112	0.00	30.080 
14:05	61.3	61.3	61.3	26	26.1	5	11	90	0.00	30.074 
14:10	61.2	61.2	61.2	26	26.0	7	13	112	0.00	30.072 
14:15	61.0	61.0	61.0	26	25.9	6	12	90	0.00	30.069 
14:20	61.2	61.2	61.2	27	27.0	4	11	112	0.00	30.066 
14:25	61.2	61.2	61.2	26	26.0	4	11	90	0.00	30.062 
14:30	61.3	61.3	61.3	27	27.0	4	11	112	0.00	30.059 
14:35	61.2	61.2	61.2	26	26.0	6	12	112	0.00	30.056 
14:40	61.2	61.2	61.2	27	27.0	4	11	112	0.00	30.056 
14:45	61.3	61.3	61.3	27	27.0	6	15	112	0.00	30.056 
14:50	61.6	61.6	61.6	27	27.3	4	11	112	0.00	30.055 
14:55	61.8	61.8	61.8	27	27.5	3	5	90	0.00	30.053 
15:00	61.8	61.8	61.8	27	27.5	3	10	112	0.00	30.054 
15:05	62.0	62.0	62.0	27	27.6	5	10	112	0.00	30.051 
15:10	62.0	62.0	62.0	27	27.6	6	12	112	0.00	30.048 
15:15	62.1	62.1	62.1	27	27.7	4	11	112	0.00	30.043 
15:20	62.3	62.3	62.3	27	27.9	4	9	90	0.00	30.041 
15:25	62.6	62.6	62.6	27	28.2	4	9	112	0.00	30.040 
15:30	62.9	62.9	62.9	27	28.4	4	7	112	0.00	30.032 
15:35	63.2	63.2	63.2	27	28.7	5	11	112	0.00	30.029 
15:40	63.1	63.1	63.1	28	29.5	5	12	112	0.00	30.026 
15:45	63.2	63.2	63.2	27	28.7	6	13	112	0.00	30.023 
15:50	63.5	63.5	63.5	28	29.8	5	11	112	0.00	30.022 
15:55	63.5	63.5	63.5	26	28.0	6	12	112	0.00	30.021 
16:00	63.7	63.7	63.7	27	29.1	6	13	112	0.00	30.013 
16:05	64.0	64.0	64.0	27	29.4	5	14	112	0.00	30.014 
16:10	64.5	64.5	64.5	27	29.8	5	11	90	0.00	30.007 
16:15	64.7	64.7	64.7	26	29.0	6	13	112	0.00	30.003 
16:20	64.7	64.7	64.7	27	29.9	7	14	112	0.00	29.998 
16:25	64.7	64.7	64.7	28	30.8	7	13	112	0.00	29.996 
16:30	64.5	64.5	64.5	28	30.7	5	11	112	0.00	30.001 
16:35	64.5	64.5	64.5	28	30.7	4	11	112	0.00	29.996 
16:40	64.5	64.5	64.5	27	29.8	6	12	112	0.00	29.996 
16:45	64.3	64.3	64.3	28	30.5	5	11	112	0.00	30.001 
16:50	64.3	64.3	64.3	28	30.5	5	13	112	0.00	30.000 
16:55	64.2	64.2	64.2	27	29.5	5	13	112	0.00	30.002 
17:00	64.2	64.2	64.2	27	29.5	4	10	112	0.00	30.003 
17:05	64.0	64.0	64.0	27	29.4	4	11	112	0.00	30.001 
17:10	64.0	64.0	64.0	28	30.2	4	10	112	0.00	29.997 
17:15	64.0	64.0	64.0	27	29.4	5	12	112	0.00	29.995 
17:20	64.2	64.2	64.2	28	30.4	2	6	90	0.00	29.997 
17:25	64.3	64.3	64.3	28	30.5	4	9	112	0.00	29.996 
17:30	64.5	64.5	64.5	27	29.8	5	10	112	0.00	29.990 
17:35	64.5	64.5	64.5	27	29.8	5	10	112	0.00	29.990 
17:40	64.5	64.5	64.5	28	30.7	4	11	112	0.00	29.989 
17:45	64.2	64.2	64.2	27	29.5	4	10	112	0.00	29.988 
17:50	63.9	63.9	63.9	28	30.2	4	10	112	0.00	29.986 
17:55	63.7	63.7	63.7	27	29.1	4	7	112	0.00	29.981 
18:00	63.4	63.4	63.4	28	29.7	4	10	112	0.00	29.981 
18:05	63.2	63.2	63.2	28	29.6	3	9	112	0.00	29.981 
18:10	62.9	62.9	62.9	29	30.2	4	9	112	0.00	29.979 
18:15	62.6	62.6	62.6	30	30.7	4	9	112	0.00	29.980 
18:20	62.1	62.1	62.1	30	30.3	4	11	112	0.00	29.983 
18:25	61.8	61.8	61.8	30	30.0	4	9	112	0.00	29.983 
18:30	61.3	61.3	61.3	31	30.4	4	7	112	0.00	29.983 
18:35	61.2	61.2	61.2	31	30.3	5	10	112	0.00	29.978 
18:40	60.7	60.7	60.7	32	30.7	4	7	112	0.00	29.977 
18:45	60.4	60.4	60.4	32	30.4	3	6	90	0.00	29.976 
18:50	60.1	60.1	60.1	33	30.9	4	7	112	0.00	29.970 
18:55	59.6	59.6	59.6	33	30.5	4	7	112	0.00	29.967 
19:00	59.3	59.3	59.3	34	30.9	5	11	112	0.00	29.964 
19:05	59.2	59.2	59.2	34	30.8	3	7	112	0.00	29.967 
19:10	58.7	58.7	58.7	35	31.1	4	7	90	0.00	29.968 
19:15	58.4	58.4	58.4	36	31.6	4	7	112	0.00	29.966 
19:20	58.3	58.3	58.3	36	31.5	4	7	112	0.00	29.964 
19:25	58.0	58.0	58.0	37	31.9	4	9	90	0.00	29.963 
19:30	57.8	57.8	57.8	37	31.7	4	8	112	0.00	29.962 
19:35	57.6	57.6	57.6	37	31.5	4	9	112	0.00	29.962 
19:40	57.5	57.5	57.5	38	32.1	5	10	112	0.00	29.960 
19:45	57.3	57.3	57.3	38	31.9	4	7	90	0.00	29.958 
19:50	57.2	57.2	57.2	39	32.5	4	7	112	0.00	29.952 
19:55	57.0	57.0	57.0	39	32.3	4	9	112	0.00	29.950 
20:00	56.7	56.7	56.7	39	32.0	3	10	90	0.00	29.949 
20:05	56.6	56.6	56.6	39	31.9	4	7	112	0.00	29.949 
20:10	56.6	56.6	56.6	40	32.6	4	9	112	0.00	29.947 
20:15	56.3	56.3	56.3	40	32.3	3	7	112	0.00	29.957 
20:20	56.2	56.2	56.2	41	32.8	2	5	90	0.00	29.956 
20:25	55.9	55.9	55.9	41	32.5	3	5	112	0.00	29.958 
20:30	55.6	55.6	55.6	41	32.3	2	5	112	0.00	29.960 
20:35	55.6	55.6	55.6	42	32.9	2	6	90	0.00	29.959 
20:40	55.6	55.6	55.6	42	32.9	3	6	112	0.00	29.961 
20:45	55.7	55.7	55.7	41	32.4	3	11	112	0.00	29.961 
20:50	56.2	56.2	56.2	40	32.2	3	10	112	0.00	29.961 
20:55	56.3	56.3	56.3	40	32.3	3	7	112	0.00	29.962 
21:00	56.5	56.5	56.5	41	33.1	2	5	112	0.00	29.960 
21:05	56.3	56.3	56.3	41	32.9	2	7	112	0.00	29.960 
21:10	56.3	56.3	56.3	41	32.9	2	7	112	0.00	29.961 
21:15	56.5	56.5	56.5	41	33.1	3	5	112	0.00	29.956 
21:20	56.5	56.5	56.5	41	33.1	2	5	112	0.00	29.956 
21:25	56.6	56.6	56.6	40	32.6	3	7	112	0.00	29.955 
21:30	56.6	56.6	56.6	40	32.6	3	6	112	0.00	29.955 
21:35	56.6	56.6	56.6	41	33.2	2	7	112	0.00	29.955 
21:40	56.5	56.5	56.5	41	33.1	2	5	112	0.00	29.955 
21:45	56.5	56.5	56.5	42	33.7	1	6	112	0.00	29.952 
21:50	56.5	56.5	56.5	41	33.1	3	7	112	0.00	29.948 
21:55	56.6	56.6	56.6	42	33.8	2	9	112	0.00	29.943 
22:00	56.7	56.7	56.7	41	33.3	2	6	112	0.00	29.946 
22:05	56.7	56.7	56.7	42	33.9	2	5	112	0.00	29.942 
22:10	56.9	56.9	56.9	42	34.0	1	6	112	0.00	29.939 
22:15	56.9	56.9	56.9	42	34.0	1	4	112	0.00	29.938 
22:20	56.9	56.9	56.9	42	34.0	2	5	112	0.00	29.937 
22:25	57.2	57.2	57.2	42	34.3	3	7	112	0.00	29.935 
22:30	57.5	57.5	57.5	41	34.0	3	11	90	0.00	29.931 
22:35	57.8	57.8	57.8	41	34.3	2	7	90	0.00	29.929 
22:40	58.1	58.1	58.1	40	33.9	3	10	90	0.00	29.923 
22:45	58.4	58.4	58.4	40	34.2	3	10	90	0.00	29.922 
22:50	58.7	58.7	58.7	39	33.8	4	9	90	0.00	29.921 
22:55	58.9	58.9	58.9	40	34.6	3	9	90	0.00	29.919 
23:00	59.2	59.2	59.2	40	34.9	4	7	112	0.00	29.909 
23:05	59.3	59.3	59.3	40	35.0	4	11	68	0.00	29.902 
23:10	59.5	59.5	59.5	39	34.5	5	10	90	0.00	29.903 
23:15	59.6	59.6	59.6	40	35.3	4	9	90	0.00	29.897 
23:20	59.9	59.9	59.9	39	34.9	5	11	90	0.00	29.894 
23:25	60.1	60.1	60.1	39	35.1	5	11	90	0.00	29.890 
23:30	60.1	60.1	60.1	40	35.7	5	12	90	0.00	29.885 
23:35	60.2	60.2	60.2	40	35.8	5	13	90	0.00	29.883 
23:40	60.4	60.4	60.4	40	36.0	5	12	90	0.00	29.881 
23:45	60.4	60.4	60.4	40	36.0	5	10	90	0.00	29.877 
23:50	60.4	60.4	60.4	40	36.0	5	12	90	0.00	29.870 
23:55	60.4	60.4	60.4	41	36.6	4	10	90	0.00	29.867 

CoCoRaHS
IN-AL-39
A2 Web Hosting
Creative Commons License
GoDaddy
search engine by freefind advanced

loaded 2018-11-13 02:28:08 • last modified 2010-11-18 10:43:29
Privacy PolicyDisclaimer
• wx.awcolley.com is powered by PmWiki v.2002016 •
• all content (unless otherwise noted) © 2018 A W Colley